AFR49HG LFPG-LFRS
Flight info
| Callsign | AFR49HG |
|---|---|
| Flight time | 0h 48m |
| Altitude | 27000 |
| Route | LGL UT176 ROLEN UZ15 ARDOD A5 VALAX |
| Aircraft | A319/M-SDE3FGHIRWY/LB1 |
Departure
| Time | 2026-05-08 16:08 |
|---|---|
| Airport | Charles de Gaulle International Airport (LFPG) |
Arrival
| Time | 2026-05-08 16:56 |
|---|---|
| Airport | Nantes Atlantique Airport (LFRS) |
| Time | Latitude | Longitude | Altitude | Speed | Heading |
|---|---|---|---|---|---|
| 2026-05-08 15:59 | 49.00166 | 2.58219 | 354 ft | 0 kts | 23° |
| 2026-05-08 16:00 | 49.00146 | 2.58207 | 357 ft | 4 kts | 14° |
| 2026-05-08 16:01 | 49.00120 | 2.58202 | 357 ft | 4 kts | 352° |
| 2026-05-08 16:01 | 49.00097 | 2.58215 | 364 ft | 4 kts | 307° |
| 2026-05-08 16:01 | 49.00090 | 2.58240 | 361 ft | 1 kts | 266° |
| 2026-05-08 16:01 | 49.00091 | 2.58245 | 361 ft | 1 kts | 266° |
| 2026-05-08 16:03 | 49.00090 | 2.58242 | 361 ft | 2 kts | 266° |
| 2026-05-08 16:03 | 49.00087 | 2.58196 | 360 ft | 7 kts | 264° |
| 2026-05-08 16:04 | 49.00080 | 2.58088 | 354 ft | 13 kts | 264° |
| 2026-05-08 16:04 | 49.00071 | 2.57931 | 354 ft | 17 kts | 264° |
| 2026-05-08 16:04 | 49.00043 | 2.57755 | 358 ft | 16 kts | 222° |
| 2026-05-08 16:04 | 48.99976 | 2.57652 | 359 ft | 17 kts | 267° |
| 2026-05-08 16:05 | 48.99966 | 2.57457 | 354 ft | 20 kts | 265° |
| 2026-05-08 16:05 | 48.99954 | 2.57221 | 354 ft | 24 kts | 265° |
| 2026-05-08 16:05 | 48.99938 | 2.56951 | 354 ft | 26 kts | 264° |
| 2026-05-08 16:05 | 48.99923 | 2.56676 | 354 ft | 26 kts | 265° |
| 2026-05-08 16:06 | 48.99909 | 2.56400 | 354 ft | 26 kts | 264° |
| 2026-05-08 16:06 | 48.99799 | 2.56277 | 354 ft | 21 kts | 166° |
| 2026-05-08 16:06 | 48.99657 | 2.56290 | 357 ft | 19 kts | 171° |
| 2026-05-08 16:06 | 48.99633 | 2.56446 | 356 ft | 17 kts | 86° |
| 2026-05-08 16:07 | 48.99642 | 2.56626 | 360 ft | 18 kts | 85° |
| 2026-05-08 16:07 | 48.99664 | 2.57024 | 351 ft | 73 kts | 85° |
| 2026-05-08 16:07 | 48.99723 | 2.58141 | 356 ft | 136 kts | 85° |
| 2026-05-08 16:07 | 48.99806 | 2.59800 | 593 ft | 162 kts | 84° |
| 2026-05-08 16:08 | 48.99891 | 2.61458 | 1399 ft | 157 kts | 84° |
| 2026-05-08 16:08 | 48.99980 | 2.63121 | 2042 ft | 158 kts | 84° |
| 2026-05-08 16:08 | 49.00075 | 2.64889 | 2448 ft | 180 kts | 84° |
| 2026-05-08 16:08 | 49.00185 | 2.66913 | 2854 ft | 204 kts | 85° |
| 2026-05-08 16:09 | 49.00309 | 2.69184 | 3334 ft | 227 kts | 85° |
| 2026-05-08 16:09 | 49.00398 | 2.70832 | 3662 ft | 243 kts | 85° |
| 2026-05-08 16:09 | 49.00586 | 2.74426 | 4635 ft | 261 kts | 85° |
| 2026-05-08 16:09 | 49.00723 | 2.77171 | 5526 ft | 267 kts | 87° |
| 2026-05-08 16:10 | 49.00596 | 2.80023 | 6465 ft | 272 kts | 97° |
| 2026-05-08 16:10 | 49.00315 | 2.82893 | 7359 ft | 276 kts | 100° |
| 2026-05-08 16:10 | 48.99983 | 2.85800 | 8217 ft | 282 kts | 103° |
| 2026-05-08 16:10 | 48.99214 | 2.88560 | 9058 ft | 286 kts | 127° |
| 2026-05-08 16:11 | 48.97763 | 2.90609 | 9922 ft | 287 kts | 152° |
| 2026-05-08 16:11 | 48.95877 | 2.91554 | 10721 ft | 287 kts | 177° |
| 2026-05-08 16:11 | 48.93885 | 2.91251 | 11297 ft | 298 kts | 200° |
| 2026-05-08 16:11 | 48.92074 | 2.89561 | 11570 ft | 319 kts | 226° |
| 2026-05-08 16:12 | 48.90892 | 2.86614 | 11866 ft | 338 kts | 250° |
| 2026-05-08 16:12 | 48.90130 | 2.83182 | 12503 ft | 346 kts | 251° |
| 2026-05-08 16:12 | 48.89355 | 2.79694 | 13262 ft | 350 kts | 251° |
| 2026-05-08 16:12 | 48.88563 | 2.76178 | 14013 ft | 353 kts | 251° |
| 2026-05-08 16:13 | 48.87757 | 2.72640 | 14683 ft | 356 kts | 251° |
| 2026-05-08 16:13 | 48.86935 | 2.69074 | 15367 ft | 360 kts | 251° |
| 2026-05-08 16:13 | 48.86103 | 2.65469 | 16041 ft | 363 kts | 251° |
| 2026-05-08 16:13 | 48.85267 | 2.61836 | 16708 ft | 367 kts | 251° |
| 2026-05-08 16:14 | 48.84423 | 2.58155 | 17330 ft | 371 kts | 251° |
| 2026-05-08 16:14 | 48.83573 | 2.54445 | 17996 ft | 374 kts | 251° |
| 2026-05-08 16:14 | 48.82713 | 2.50701 | 18611 ft | 377 kts | 251° |
| 2026-05-08 16:14 | 48.82140 | 2.48210 | 18996 ft | 379 kts | 251° |
| 2026-05-08 16:15 | 48.81263 | 2.44421 | 19584 ft | 382 kts | 252° |
| 2026-05-08 16:15 | 48.80474 | 2.40571 | 20163 ft | 383 kts | 259° |
| 2026-05-08 16:15 | 48.80116 | 2.36562 | 20734 ft | 384 kts | 269° |
| 2026-05-08 16:15 | 48.80117 | 2.32514 | 21317 ft | 385 kts | 272° |
| 2026-05-08 16:16 | 48.80135 | 2.28444 | 21885 ft | 387 kts | 272° |
| 2026-05-08 16:16 | 48.80147 | 2.24356 | 22450 ft | 388 kts | 273° |
| 2026-05-08 16:16 | 48.80154 | 2.20256 | 23001 ft | 390 kts | 273° |
| 2026-05-08 16:16 | 48.80158 | 2.16126 | 23502 ft | 393 kts | 273° |
| 2026-05-08 16:17 | 48.80158 | 2.11968 | 23889 ft | 396 kts | 273° |
| 2026-05-08 16:17 | 48.80156 | 2.07777 | 24284 ft | 399 kts | 273° |
| 2026-05-08 16:17 | 48.80151 | 2.03558 | 24687 ft | 401 kts | 273° |
| 2026-05-08 16:17 | 48.80145 | 1.99318 | 25090 ft | 403 kts | 273° |
| 2026-05-08 16:18 | 48.80137 | 1.95060 | 25484 ft | 405 kts | 272° |
| 2026-05-08 16:18 | 48.80127 | 1.90830 | 25870 ft | 407 kts | 272° |
| 2026-05-08 16:18 | 48.80116 | 1.86520 | 26264 ft | 409 kts | 272° |
| 2026-05-08 16:18 | 48.80104 | 1.82191 | 26650 ft | 412 kts | 272° |
| 2026-05-08 16:19 | 48.80092 | 1.77841 | 26959 ft | 414 kts | 272° |
| 2026-05-08 16:19 | 48.80080 | 1.73473 | 27020 ft | 416 kts | 272° |
| 2026-05-08 16:19 | 48.80068 | 1.69065 | 27038 ft | 420 kts | 272° |
| 2026-05-08 16:19 | 48.80054 | 1.64629 | 27038 ft | 421 kts | 272° |
| 2026-05-08 16:20 | 48.80035 | 1.60194 | 27036 ft | 421 kts | 272° |
| 2026-05-08 16:20 | 48.80013 | 1.55750 | 27043 ft | 421 kts | 272° |
| 2026-05-08 16:20 | 48.79990 | 1.51302 | 27044 ft | 421 kts | 272° |
| 2026-05-08 16:20 | 48.79967 | 1.46858 | 27045 ft | 421 kts | 272° |
| 2026-05-08 16:21 | 48.79945 | 1.42422 | 27046 ft | 421 kts | 272° |
| 2026-05-08 16:21 | 48.79920 | 1.37980 | 27048 ft | 421 kts | 271° |
| 2026-05-08 16:21 | 48.79891 | 1.33537 | 27047 ft | 421 kts | 271° |
| 2026-05-08 16:21 | 48.79860 | 1.29097 | 27037 ft | 421 kts | 271° |
| 2026-05-08 16:22 | 48.79827 | 1.24654 | 27032 ft | 421 kts | 271° |
| 2026-05-08 16:22 | 48.79793 | 1.20209 | 27029 ft | 422 kts | 271° |
| 2026-05-08 16:22 | 48.79758 | 1.15817 | 27027 ft | 422 kts | 271° |
| 2026-05-08 16:22 | 48.79720 | 1.11374 | 27027 ft | 422 kts | 271° |
| 2026-05-08 16:23 | 48.79679 | 1.06927 | 27026 ft | 422 kts | 271° |
| 2026-05-08 16:23 | 48.79637 | 1.02478 | 27025 ft | 422 kts | 271° |
| 2026-05-08 16:23 | 48.79593 | 0.98018 | 27025 ft | 422 kts | 271° |
| 2026-05-08 16:23 | 48.79547 | 0.93570 | 27021 ft | 422 kts | 271° |
| 2026-05-08 16:24 | 48.79500 | 0.89121 | 27018 ft | 422 kts | 271° |
| 2026-05-08 16:24 | 48.79452 | 0.84660 | 27016 ft | 423 kts | 270° |
| 2026-05-08 16:24 | 48.79404 | 0.80206 | 27015 ft | 423 kts | 270° |
| 2026-05-08 16:24 | 48.79355 | 0.75745 | 27015 ft | 423 kts | 270° |
| 2026-05-08 16:25 | 48.79305 | 0.71284 | 27014 ft | 424 kts | 270° |
| 2026-05-08 16:25 | 48.79248 | 0.66812 | 27013 ft | 424 kts | 270° |
| 2026-05-08 16:25 | 48.79187 | 0.62351 | 27014 ft | 424 kts | 270° |
| 2026-05-08 16:25 | 48.78901 | 0.57890 | 27015 ft | 426 kts | 261° |
| 2026-05-08 16:26 | 48.78095 | 0.53563 | 27018 ft | 428 kts | 251° |
| 2026-05-08 16:26 | 48.76790 | 0.49499 | 27015 ft | 432 kts | 241° |
| 2026-05-08 16:26 | 48.75038 | 0.45857 | 27015 ft | 435 kts | 232° |
| 2026-05-08 16:26 | 48.73074 | 0.42377 | 27009 ft | 435 kts | 232° |
| 2026-05-08 16:27 | 48.71110 | 0.38892 | 27011 ft | 435 kts | 232° |
| 2026-05-08 16:27 | 48.69148 | 0.35405 | 27012 ft | 435 kts | 232° |
| 2026-05-08 16:27 | 48.67188 | 0.31921 | 27010 ft | 435 kts | 232° |
| 2026-05-08 16:27 | 48.65229 | 0.28440 | 27010 ft | 435 kts | 232° |
| 2026-05-08 16:28 | 48.63269 | 0.24964 | 26995 ft | 434 kts | 231° |
| 2026-05-08 16:28 | 48.61307 | 0.21497 | 26998 ft | 434 kts | 231° |
| 2026-05-08 16:28 | 48.59341 | 0.18027 | 26999 ft | 434 kts | 231° |
| 2026-05-08 16:28 | 48.57258 | 0.14715 | 26992 ft | 436 kts | 224° |
| 2026-05-08 16:29 | 48.54948 | 0.11743 | 26991 ft | 437 kts | 222° |
| 2026-05-08 16:29 | 48.52619 | 0.08781 | 26992 ft | 437 kts | 222° |
| 2026-05-08 16:29 | 48.50295 | 0.05824 | 26993 ft | 437 kts | 222° |
| 2026-05-08 16:29 | 48.47971 | 0.02867 | 26989 ft | 438 kts | 222° |
| 2026-05-08 16:30 | 48.45645 | -0.00092 | 26991 ft | 438 kts | 222° |
| 2026-05-08 16:30 | 48.43319 | -0.03053 | 26984 ft | 438 kts | 221° |
| 2026-05-08 16:30 | 48.40991 | -0.06014 | 26987 ft | 438 kts | 221° |
| 2026-05-08 16:30 | 48.38666 | -0.08969 | 26993 ft | 438 kts | 221° |
| 2026-05-08 16:31 | 48.36369 | -0.11883 | 26990 ft | 438 kts | 221° |
| 2026-05-08 16:31 | 48.34041 | -0.14829 | 26990 ft | 438 kts | 221° |
| 2026-05-08 16:31 | 48.31711 | -0.17770 | 26991 ft | 438 kts | 221° |
| 2026-05-08 16:31 | 48.29374 | -0.20715 | 26988 ft | 438 kts | 221° |
| 2026-05-08 16:32 | 48.27042 | -0.23653 | 26988 ft | 438 kts | 221° |
| 2026-05-08 16:32 | 48.24713 | -0.26586 | 26986 ft | 438 kts | 221° |
| 2026-05-08 16:32 | 48.22378 | -0.29520 | 26988 ft | 437 kts | 221° |
| 2026-05-08 16:32 | 48.20050 | -0.32441 | 26997 ft | 436 kts | 221° |
| 2026-05-08 16:33 | 48.17721 | -0.35359 | 26999 ft | 436 kts | 221° |
| 2026-05-08 16:33 | 48.15396 | -0.38266 | 27000 ft | 435 kts | 221° |
| 2026-05-08 16:33 | 48.13078 | -0.41169 | 26998 ft | 435 kts | 221° |
| 2026-05-08 16:33 | 48.10763 | -0.44071 | 26995 ft | 434 kts | 221° |
| 2026-05-08 16:34 | 48.08444 | -0.46971 | 26992 ft | 434 kts | 221° |
| 2026-05-08 16:34 | 48.06124 | -0.49860 | 26987 ft | 434 kts | 220° |
| 2026-05-08 16:34 | 48.03802 | -0.52741 | 26982 ft | 434 kts | 221° |
| 2026-05-08 16:34 | 48.01482 | -0.55618 | 26980 ft | 434 kts | 221° |
| 2026-05-08 16:35 | 47.99164 | -0.58489 | 26972 ft | 433 kts | 220° |
| 2026-05-08 16:35 | 47.96843 | -0.61367 | 26971 ft | 433 kts | 220° |
| 2026-05-08 16:35 | 47.94525 | -0.64241 | 26973 ft | 433 kts | 220° |
| 2026-05-08 16:35 | 47.92211 | -0.67105 | 26971 ft | 433 kts | 220° |
| 2026-05-08 16:36 | 47.89892 | -0.69975 | 26970 ft | 433 kts | 220° |
| 2026-05-08 16:36 | 47.87579 | -0.72835 | 26969 ft | 433 kts | 220° |
| 2026-05-08 16:36 | 47.85289 | -0.75663 | 26965 ft | 433 kts | 220° |
| 2026-05-08 16:36 | 47.82946 | -0.78550 | 26965 ft | 432 kts | 220° |
| 2026-05-08 16:37 | 47.80629 | -0.81399 | 26967 ft | 432 kts | 220° |
| 2026-05-08 16:37 | 47.78343 | -0.84207 | 26499 ft | 430 kts | 220° |
| 2026-05-08 16:37 | 47.76026 | -0.87049 | 24810 ft | 437 kts | 219° |
| 2026-05-08 16:37 | 47.73661 | -0.89940 | 23194 ft | 443 kts | 219° |
| 2026-05-08 16:38 | 47.71287 | -0.92839 | 21728 ft | 440 kts | 219° |
| 2026-05-08 16:38 | 47.68944 | -0.95697 | 20548 ft | 432 kts | 219° |
| 2026-05-08 16:38 | 47.66647 | -0.98495 | 19436 ft | 423 kts | 219° |
| 2026-05-08 16:38 | 47.64384 | -1.01245 | 18363 ft | 415 kts | 219° |
| 2026-05-08 16:39 | 47.62173 | -1.03925 | 17193 ft | 408 kts | 219° |
| 2026-05-08 16:39 | 47.59997 | -1.06557 | 16079 ft | 401 kts | 219° |
| 2026-05-08 16:39 | 47.57852 | -1.09146 | 15324 ft | 390 kts | 219° |
| 2026-05-08 16:39 | 47.55803 | -1.11623 | 14837 ft | 373 kts | 219° |
| 2026-05-08 16:40 | 47.55313 | -1.12222 | 14728 ft | 373 kts | 219° |
| 2026-05-08 16:40 | 47.53332 | -1.14689 | 14252 ft | 374 kts | 220° |
| 2026-05-08 16:40 | 47.51364 | -1.17181 | 13760 ft | 371 kts | 220° |
| 2026-05-08 16:40 | 47.49422 | -1.19661 | 13254 ft | 367 kts | 220° |
| 2026-05-08 16:41 | 47.47495 | -1.22117 | 12781 ft | 365 kts | 220° |
| 2026-05-08 16:41 | 47.45572 | -1.24558 | 12304 ft | 364 kts | 220° |
| 2026-05-08 16:41 | 47.43652 | -1.26980 | 11832 ft | 362 kts | 219° |
| 2026-05-08 16:42 | 47.40590 | -1.30816 | 11153 ft | 348 kts | 219° |
| 2026-05-08 16:42 | 47.39672 | -1.31964 | 11080 ft | 335 kts | 219° |
| 2026-05-08 16:42 | 47.37981 | -1.34082 | 10952 ft | 312 kts | 219° |
| 2026-05-08 16:42 | 47.36375 | -1.36089 | 10748 ft | 295 kts | 219° |
| 2026-05-08 16:43 | 47.34829 | -1.38020 | 10312 ft | 288 kts | 219° |
| 2026-05-08 16:43 | 47.33322 | -1.39898 | 10099 ft | 282 kts | 218° |
| 2026-05-08 16:43 | 47.31819 | -1.41769 | 10035 ft | 283 kts | 218° |
| 2026-05-08 16:43 | 47.30309 | -1.43643 | 9933 ft | 283 kts | 218° |
| 2026-05-08 16:44 | 47.28811 | -1.45506 | 9720 ft | 282 kts | 219° |
| 2026-05-08 16:44 | 47.27316 | -1.47370 | 9492 ft | 281 kts | 219° |
| 2026-05-08 16:44 | 47.25829 | -1.49225 | 9269 ft | 281 kts | 219° |
| 2026-05-08 16:44 | 47.24341 | -1.51076 | 9058 ft | 280 kts | 218° |
| 2026-05-08 16:45 | 47.22853 | -1.52924 | 8860 ft | 279 kts | 218° |
| 2026-05-08 16:45 | 47.21368 | -1.54762 | 8705 ft | 279 kts | 218° |
| 2026-05-08 16:45 | 47.19886 | -1.56590 | 8498 ft | 277 kts | 218° |
| 2026-05-08 16:45 | 47.18411 | -1.58412 | 8289 ft | 277 kts | 218° |
| 2026-05-08 16:46 | 47.16939 | -1.60232 | 8076 ft | 276 kts | 218° |
| 2026-05-08 16:46 | 47.15496 | -1.62081 | 7871 ft | 275 kts | 224° |
| 2026-05-08 16:46 | 47.14281 | -1.64234 | 7665 ft | 275 kts | 231° |
| 2026-05-08 16:46 | 47.13115 | -1.66454 | 7456 ft | 273 kts | 230° |
| 2026-05-08 16:47 | 47.11955 | -1.68656 | 7239 ft | 272 kts | 230° |
| 2026-05-08 16:47 | 47.10797 | -1.70848 | 7053 ft | 271 kts | 230° |
| 2026-05-08 16:47 | 47.09624 | -1.73031 | 6569 ft | 276 kts | 229° |
| 2026-05-08 16:47 | 47.08417 | -1.75205 | 6207 ft | 272 kts | 229° |
| 2026-05-08 16:48 | 47.07222 | -1.77338 | 5711 ft | 270 kts | 228° |
| 2026-05-08 16:48 | 47.06038 | -1.79449 | 5098 ft | 273 kts | 228° |
| 2026-05-08 16:48 | 47.04855 | -1.81563 | 4830 ft | 262 kts | 228° |
| 2026-05-08 16:48 | 47.03736 | -1.83570 | 4681 ft | 247 kts | 228° |
| 2026-05-08 16:49 | 47.02682 | -1.85461 | 4574 ft | 231 kts | 228° |
| 2026-05-08 16:49 | 47.01681 | -1.87217 | 4403 ft | 219 kts | 223° |
| 2026-05-08 16:49 | 47.00398 | -1.88240 | 4081 ft | 208 kts | 186° |
| 2026-05-08 16:49 | 46.99020 | -1.87896 | 3822 ft | 202 kts | 149° |
| 2026-05-08 16:50 | 46.97971 | -1.86540 | 3577 ft | 203 kts | 133° |
| 2026-05-08 16:50 | 46.97033 | -1.84998 | 3332 ft | 202 kts | 129° |
| 2026-05-08 16:50 | 46.96167 | -1.83395 | 3144 ft | 202 kts | 126° |
| 2026-05-08 16:50 | 46.95359 | -1.81721 | 3040 ft | 200 kts | 122° |
| 2026-05-08 16:51 | 46.94628 | -1.80000 | 3015 ft | 200 kts | 117° |
| 2026-05-08 16:51 | 46.94423 | -1.78030 | 3022 ft | 201 kts | 78° |
| 2026-05-08 16:51 | 46.95186 | -1.76346 | 3024 ft | 207 kts | 37° |
| 2026-05-08 16:51 | 46.96468 | -1.75348 | 3028 ft | 209 kts | 28° |
| 2026-05-08 16:52 | 46.97771 | -1.74377 | 3025 ft | 210 kts | 28° |
| 2026-05-08 16:52 | 46.99070 | -1.73399 | 3022 ft | 210 kts | 29° |
| 2026-05-08 16:52 | 47.00335 | -1.72444 | 2989 ft | 200 kts | 30° |
| 2026-05-08 16:52 | 47.01552 | -1.71523 | 2807 ft | 196 kts | 30° |
| 2026-05-08 16:53 | 47.03936 | -1.69717 | 2335 ft | 190 kts | 29° |
| 2026-05-08 16:53 | 47.05091 | -1.68842 | 2075 ft | 188 kts | 30° |
| 2026-05-08 16:53 | 47.06244 | -1.67969 | 1833 ft | 184 kts | 30° |
| 2026-05-08 16:54 | 47.07334 | -1.67143 | 1600 ft | 168 kts | 30° |
| 2026-05-08 16:54 | 47.08330 | -1.66388 | 1381 ft | 155 kts | 30° |
| 2026-05-08 16:54 | 47.09257 | -1.65684 | 1173 ft | 146 kts | 31° |
| 2026-05-08 16:54 | 47.10130 | -1.65021 | 991 ft | 139 kts | 31° |
| 2026-05-08 16:55 | 47.10973 | -1.64378 | 792 ft | 135 kts | 30° |
| 2026-05-08 16:55 | 47.11792 | -1.63758 | 644 ft | 130 kts | 31° |
| 2026-05-08 16:55 | 47.12597 | -1.63147 | 452 ft | 130 kts | 31° |
| 2026-05-08 16:55 | 47.13384 | -1.62546 | 291 ft | 128 kts | 31° |
| 2026-05-08 16:56 | 47.14176 | -1.61947 | 144 ft | 128 kts | 31° |
| 2026-05-08 16:56 | 47.14911 | -1.61372 | 87 ft | 102 kts | 30° |
| 2026-05-08 16:56 | 47.15379 | -1.61026 | 89 ft | 36 kts | 27° |
| 2026-05-08 16:56 | 47.15555 | -1.60892 | 86 ft | 24 kts | 27° |
| 2026-05-08 16:57 | 47.15669 | -1.60737 | 85 ft | 24 kts | 95° |
| 2026-05-08 16:57 | 47.15658 | -1.60551 | 91 ft | 17 kts | 46° |
| 2026-05-08 16:57 | 47.15723 | -1.60487 | 90 ft | 10 kts | 48° |
| 2026-05-08 16:57 | 47.15733 | -1.60409 | 91 ft | 6 kts | 92° |
| 2026-05-08 16:58 | 47.15733 | -1.60347 | 90 ft | 5 kts | 88° |
| 2026-05-08 16:58 | 47.15733 | -1.60334 | 90 ft | 0 kts | 88° |
| 2026-05-08 17:09 | 47.15733 | -1.60335 | 62 ft | 0 kts | 88° |
| 2026-05-08 17:31 | 47.15733 | -1.60336 | 90 ft | 0 kts | 88° |
| 2026-05-08 17:44 | 47.15733 | -1.60346 | 91 ft | 4 kts | 86° |
| 2026-05-08 17:44 | 47.15728 | -1.60384 | 93 ft | 4 kts | 64° |
| 2026-05-08 17:44 | 47.15715 | -1.60408 | 90 ft | 4 kts | 355° |
| 2026-05-08 17:45 | 47.15706 | -1.60404 | 91 ft | 1 kts | 325° |
| 2026-05-08 17:45 | 47.15705 | -1.60403 | 92 ft | 1 kts | 325° |
| 2026-05-08 17:46 | 47.15707 | -1.60405 | 91 ft | 2 kts | 325° |
| 2026-05-08 17:47 | 47.15740 | -1.60440 | 90 ft | 10 kts | 325° |
| 2026-05-08 17:47 | 47.15822 | -1.60421 | 89 ft | 16 kts | 26° |
| 2026-05-08 17:47 | 47.15940 | -1.60330 | 90 ft | 21 kts | 25° |
| 2026-05-08 17:47 | 47.16029 | -1.60263 | 91 ft | 22 kts | 27° |
| 2026-05-08 17:48 | 47.16216 | -1.60119 | 90 ft | 23 kts | 27° |
| 2026-05-08 17:48 | 47.16318 | -1.60056 | 91 ft | 16 kts | 8° |
| 2026-05-08 17:48 | 47.16434 | -1.60110 | 84 ft | 19 kts | 320° |
| 2026-05-08 17:48 | 47.16413 | -1.60238 | 87 ft | 13 kts | 213° |
| 2026-05-08 17:49 | 47.16391 | -1.60254 | 87 ft | 0 kts | 207° |
| 2026-05-08 17:50 | 47.16342 | -1.60291 | 89 ft | 35 kts | 207° |
| 2026-05-08 17:50 | 47.15847 | -1.60667 | 85 ft | 124 kts | 207° |
| 2026-05-08 17:51 | 47.14877 | -1.61411 | 268 ft | 173 kts | 205° |
| 2026-05-08 17:51 | 47.13842 | -1.62203 | 1198 ft | 168 kts | 205° |
| 2026-05-08 17:51 | 47.12809 | -1.62988 | 2085 ft | 169 kts | 204° |
| 2026-05-08 17:51 | 47.11663 | -1.63678 | 2557 ft | 185 kts | 184° |
| 2026-05-08 17:52 | 47.10407 | -1.63150 | 2819 ft | 206 kts | 140° |
| 2026-05-08 17:52 | 47.09631 | -1.61282 | 3242 ft | 232 kts | 100° |
| 2026-05-08 17:52 | 47.10037 | -1.56216 | 4762 ft | 262 kts | 79° |
| 2026-05-08 17:53 | 47.10457 | -1.53586 | 5739 ft | 268 kts | 78° |
| 2026-05-08 17:53 | 47.10896 | -1.50897 | 6673 ft | 274 kts | 78° |
| 2026-05-08 17:53 | 47.11332 | -1.48153 | 7611 ft | 279 kts | 79° |
| 2026-05-08 17:53 | 47.11761 | -1.45348 | 8562 ft | 283 kts | 79° |
| 2026-05-08 17:54 | 47.12180 | -1.42498 | 9522 ft | 288 kts | 80° |
| 2026-05-08 17:54 | 47.12595 | -1.39593 | 10301 ft | 298 kts | 80° |
| 2026-05-08 17:54 | 47.13032 | -1.36493 | 10643 ft | 323 kts | 80° |
| 2026-05-08 17:54 | 47.13724 | -1.33263 | 11185 ft | 339 kts | 68° |
| 2026-05-08 17:55 | 47.14917 | -1.30248 | 11964 ft | 347 kts | 54° |
| 2026-05-08 17:55 | 47.16574 | -1.27639 | 12779 ft | 353 kts | 41° |
| 2026-05-08 17:55 | 47.18531 | -1.25395 | 13591 ft | 358 kts | 39° |
| 2026-05-08 17:55 | 47.20519 | -1.23147 | 14301 ft | 363 kts | 39° |
| 2026-05-08 17:56 | 47.22530 | -1.20868 | 14995 ft | 367 kts | 39° |
| 2026-05-08 17:56 | 47.24534 | -1.18588 | 15681 ft | 372 kts | 39° |
| 2026-05-08 17:56 | 47.26588 | -1.16251 | 16365 ft | 376 kts | 39° |
| 2026-05-08 17:56 | 47.28673 | -1.13876 | 17070 ft | 380 kts | 39° |
| 2026-05-08 17:57 | 47.30777 | -1.11476 | 17749 ft | 385 kts | 39° |
| 2026-05-08 17:57 | 47.32906 | -1.09046 | 18401 ft | 389 kts | 39° |
| 2026-05-08 17:57 | 47.35052 | -1.06592 | 18993 ft | 393 kts | 39° |
| 2026-05-08 17:57 | 47.37221 | -1.04111 | 19623 ft | 396 kts | 39° |
| 2026-05-08 17:58 | 47.39405 | -1.01614 | 20252 ft | 398 kts | 39° |
| 2026-05-08 17:58 | 47.41599 | -0.99107 | 20898 ft | 401 kts | 39° |
| 2026-05-08 17:58 | 47.43810 | -0.96575 | 21527 ft | 403 kts | 39° |
| 2026-05-08 17:58 | 47.46031 | -0.94023 | 22151 ft | 406 kts | 39° |
| 2026-05-08 17:59 | 47.48266 | -0.91449 | 22759 ft | 409 kts | 40° |
| 2026-05-08 17:59 | 47.50503 | -0.88843 | 23344 ft | 411 kts | 42° |
| 2026-05-08 17:59 | 47.52523 | -0.85853 | 23786 ft | 411 kts | 52° |
| 2026-05-08 17:59 | 47.54154 | -0.82413 | 23913 ft | 408 kts | 62° |
| 2026-05-08 18:00 | 47.55311 | -0.78675 | 23959 ft | 402 kts | 72° |
| 2026-05-08 18:00 | 47.57195 | -0.70923 | 23968 ft | 400 kts | 72° |
| 2026-05-08 18:00 | 47.58141 | -0.67047 | 23966 ft | 400 kts | 72° |
| 2026-05-08 18:01 | 47.59085 | -0.63170 | 23973 ft | 400 kts | 72° |
| 2026-05-08 18:01 | 47.60028 | -0.59299 | 23970 ft | 400 kts | 72° |
| 2026-05-08 18:01 | 47.60970 | -0.55420 | 23972 ft | 400 kts | 72° |
| 2026-05-08 18:01 | 47.61910 | -0.51539 | 23972 ft | 400 kts | 72° |
| 2026-05-08 18:02 | 47.62847 | -0.47647 | 23974 ft | 400 kts | 72° |
| 2026-05-08 18:02 | 47.63477 | -0.45026 | 23976 ft | 400 kts | 72° |
| 2026-05-08 18:02 | 47.64714 | -0.39880 | 23977 ft | 400 kts | 72° |
| 2026-05-08 18:02 | 47.65646 | -0.35990 | 23974 ft | 400 kts | 72° |
| 2026-05-08 18:03 | 47.66575 | -0.32092 | 23972 ft | 400 kts | 72° |
| 2026-05-08 18:03 | 47.67500 | -0.28210 | 23972 ft | 400 kts | 72° |
| 2026-05-08 18:03 | 47.68427 | -0.24319 | 23974 ft | 400 kts | 72° |
| 2026-05-08 18:03 | 47.69355 | -0.20435 | 23971 ft | 400 kts | 72° |
| 2026-05-08 18:04 | 47.70285 | -0.16541 | 23972 ft | 400 kts | 72° |
| 2026-05-08 18:04 | 47.71208 | -0.12657 | 23971 ft | 400 kts | 72° |
| 2026-05-08 18:04 | 47.72131 | -0.08757 | 23972 ft | 400 kts | 72° |
| 2026-05-08 18:04 | 47.73054 | -0.04853 | 23970 ft | 400 kts | 72° |
| 2026-05-08 18:05 | 47.73973 | -0.00957 | 23977 ft | 400 kts | 72° |
| 2026-05-08 18:05 | 47.74892 | 0.02948 | 23979 ft | 400 kts | 72° |
| 2026-05-08 18:05 | 47.75806 | 0.06845 | 23979 ft | 401 kts | 72° |
| 2026-05-08 18:05 | 47.76713 | 0.10770 | 23989 ft | 402 kts | 72° |
| 2026-05-08 18:06 | 47.77628 | 0.14691 | 23992 ft | 401 kts | 72° |
| 2026-05-08 18:06 | 47.78547 | 0.18596 | 23992 ft | 400 kts | 72° |
| 2026-05-08 18:06 | 47.79502 | 0.22434 | 23991 ft | 399 kts | 67° |
| 2026-05-08 18:06 | 47.80871 | 0.26053 | 23995 ft | 397 kts | 56° |
| 2026-05-08 18:07 | 47.82630 | 0.29172 | 23784 ft | 399 kts | 45° |
| 2026-05-08 18:07 | 47.84801 | 0.31784 | 23423 ft | 395 kts | 35° |
| 2026-05-08 18:07 | 47.87064 | 0.34112 | 23105 ft | 394 kts | 35° |
| 2026-05-08 18:07 | 47.89277 | 0.36408 | 22803 ft | 393 kts | 35° |
| 2026-05-08 18:08 | 47.91505 | 0.38743 | 22498 ft | 391 kts | 36° |
| 2026-05-08 18:08 | 47.93727 | 0.41079 | 22193 ft | 390 kts | 36° |
| 2026-05-08 18:08 | 47.95941 | 0.43410 | 21887 ft | 389 kts | 35° |
| 2026-05-08 18:08 | 47.98152 | 0.45736 | 21586 ft | 388 kts | 35° |
| 2026-05-08 18:09 | 48.00351 | 0.48043 | 21281 ft | 386 kts | 34° |
| 2026-05-08 18:09 | 48.02554 | 0.50350 | 20990 ft | 386 kts | 34° |
| 2026-05-08 18:09 | 48.04747 | 0.52654 | 20690 ft | 384 kts | 34° |
| 2026-05-08 18:09 | 48.06923 | 0.54950 | 20397 ft | 383 kts | 34° |
| 2026-05-08 18:10 | 48.09092 | 0.57243 | 20102 ft | 381 kts | 34° |
| 2026-05-08 18:10 | 48.11253 | 0.59531 | 19806 ft | 380 kts | 34° |
| 2026-05-08 18:10 | 48.13410 | 0.61815 | 19502 ft | 379 kts | 34° |
| 2026-05-08 18:10 | 48.15549 | 0.64082 | 19226 ft | 377 kts | 34° |
| 2026-05-08 18:11 | 48.17691 | 0.66354 | 18933 ft | 376 kts | 34° |
| 2026-05-08 18:11 | 48.19828 | 0.68618 | 18641 ft | 375 kts | 34° |
| 2026-05-08 18:11 | 48.21951 | 0.70868 | 18352 ft | 374 kts | 34° |
| 2026-05-08 18:11 | 48.24069 | 0.73116 | 18045 ft | 373 kts | 34° |
| 2026-05-08 18:12 | 48.26182 | 0.75368 | 17752 ft | 371 kts | 34° |
| 2026-05-08 18:12 | 48.28280 | 0.77608 | 17462 ft | 370 kts | 34° |
| 2026-05-08 18:12 | 48.30380 | 0.79850 | 17177 ft | 368 kts | 34° |
| 2026-05-08 18:12 | 48.31759 | 0.81321 | 16992 ft | 367 kts | 34° |
| 2026-05-08 18:13 | 48.33743 | 0.83714 | 16706 ft | 366 kts | 44° |
| 2026-05-08 18:13 | 48.35365 | 0.86646 | 16420 ft | 365 kts | 56° |
| 2026-05-08 18:13 | 48.36601 | 0.89980 | 16137 ft | 365 kts | 62° |
| 2026-05-08 18:13 | 48.37769 | 0.93355 | 15854 ft | 364 kts | 62° |
| 2026-05-08 18:14 | 48.38940 | 0.96736 | 15571 ft | 362 kts | 62° |
| 2026-05-08 18:14 | 48.40099 | 1.00082 | 15294 ft | 361 kts | 62° |
| 2026-05-08 18:14 | 48.41259 | 1.03426 | 15011 ft | 359 kts | 62° |
| 2026-05-08 18:14 | 48.42410 | 1.06749 | 14585 ft | 358 kts | 62° |
| 2026-05-08 18:15 | 48.43556 | 1.10067 | 14162 ft | 356 kts | 62° |
| 2026-05-08 18:15 | 48.44692 | 1.13372 | 13729 ft | 354 kts | 62° |
| 2026-05-08 18:15 | 48.45818 | 1.16646 | 13285 ft | 350 kts | 62° |
| 2026-05-08 18:15 | 48.46926 | 1.19882 | 12869 ft | 347 kts | 62° |
| 2026-05-08 18:16 | 48.48028 | 1.23098 | 12462 ft | 343 kts | 62° |
| 2026-05-08 18:16 | 48.49109 | 1.26262 | 12265 ft | 333 kts | 62° |
| 2026-05-08 18:16 | 48.50149 | 1.29305 | 12133 ft | 321 kts | 62° |
| 2026-05-08 18:16 | 48.51143 | 1.32220 | 11942 ft | 313 kts | 62° |
| 2026-05-08 18:17 | 48.52128 | 1.35108 | 11691 ft | 309 kts | 62° |
| 2026-05-08 18:17 | 48.53110 | 1.37982 | 11439 ft | 306 kts | 62° |
| 2026-05-08 18:17 | 48.54083 | 1.40830 | 11189 ft | 305 kts | 62° |
| 2026-05-08 18:17 | 48.55053 | 1.43662 | 10940 ft | 303 kts | 62° |
| 2026-05-08 18:18 | 48.56025 | 1.46483 | 10703 ft | 302 kts | 62° |
| 2026-05-08 18:18 | 48.57172 | 1.49124 | 10455 ft | 300 kts | 48° |
| 2026-05-08 18:18 | 48.58681 | 1.51248 | 10218 ft | 296 kts | 34° |
| 2026-05-08 18:18 | 48.60461 | 1.52784 | 9980 ft | 293 kts | 24° |
| 2026-05-08 18:19 | 48.62295 | 1.54131 | 9856 ft | 293 kts | 24° |
| 2026-05-08 18:19 | 48.64041 | 1.55707 | 9711 ft | 294 kts | 39° |
| 2026-05-08 18:19 | 48.65438 | 1.57971 | 9591 ft | 294 kts | 48° |
| 2026-05-08 18:19 | 48.66773 | 1.60299 | 9457 ft | 293 kts | 48° |
| 2026-05-08 18:20 | 48.68102 | 1.62634 | 9324 ft | 292 kts | 48° |
| 2026-05-08 18:20 | 48.69425 | 1.64969 | 9189 ft | 292 kts | 48° |
| 2026-05-08 18:20 | 48.70741 | 1.67297 | 9060 ft | 291 kts | 49° |
| 2026-05-08 18:20 | 48.72056 | 1.69626 | 8919 ft | 291 kts | 49° |
| 2026-05-08 18:21 | 48.73367 | 1.71951 | 8802 ft | 290 kts | 49° |
| 2026-05-08 18:21 | 48.74675 | 1.74268 | 8668 ft | 289 kts | 49° |
| 2026-05-08 18:21 | 48.75965 | 1.76550 | 8540 ft | 290 kts | 49° |
| 2026-05-08 18:21 | 48.77275 | 1.78868 | 8413 ft | 289 kts | 49° |
| 2026-05-08 18:22 | 48.78583 | 1.81183 | 8282 ft | 289 kts | 49° |
| 2026-05-08 18:22 | 48.79887 | 1.83495 | 8154 ft | 288 kts | 49° |
| 2026-05-08 18:22 | 48.81184 | 1.85802 | 8041 ft | 287 kts | 49° |
| 2026-05-08 18:22 | 48.82480 | 1.88107 | 7906 ft | 287 kts | 49° |
| 2026-05-08 18:23 | 48.83770 | 1.90407 | 7783 ft | 286 kts | 49° |
| 2026-05-08 18:23 | 48.85056 | 1.92704 | 7655 ft | 285 kts | 50° |
| 2026-05-08 18:23 | 48.86332 | 1.94978 | 7323 ft | 282 kts | 50° |
| 2026-05-08 18:23 | 48.87603 | 1.97245 | 6899 ft | 282 kts | 50° |
| 2026-05-08 18:24 | 48.88870 | 1.99508 | 6555 ft | 277 kts | 50° |
| 2026-05-08 18:24 | 48.90084 | 2.01679 | 6494 ft | 262 kts | 50° |
| 2026-05-08 18:24 | 48.91234 | 2.03736 | 6396 ft | 249 kts | 50° |
| 2026-05-08 18:24 | 48.92323 | 2.05689 | 6287 ft | 236 kts | 51° |
| 2026-05-08 18:25 | 48.93364 | 2.07560 | 6178 ft | 235 kts | 51° |
| 2026-05-08 18:25 | 48.94471 | 2.09550 | 6079 ft | 257 kts | 50° |
| 2026-05-08 18:25 | 48.95647 | 2.11664 | 5965 ft | 260 kts | 51° |
| 2026-05-08 18:25 | 48.96694 | 2.13840 | 5845 ft | 258 kts | 66° |
| 2026-05-08 18:26 | 48.97117 | 2.16474 | 5532 ft | 257 kts | 85° |
| 2026-05-08 18:26 | 48.97239 | 2.19167 | 5170 ft | 253 kts | 86° |
| 2026-05-08 18:26 | 48.97365 | 2.21813 | 4832 ft | 249 kts | 85° |
| 2026-05-08 18:26 | 48.97511 | 2.24411 | 4496 ft | 245 kts | 85° |
| 2026-05-08 18:27 | 48.97658 | 2.26986 | 4169 ft | 242 kts | 85° |
| 2026-05-08 18:27 | 48.97755 | 2.28701 | 3944 ft | 239 kts | 84° |
| 2026-05-08 18:27 | 48.97941 | 2.32004 | 3523 ft | 234 kts | 84° |
| 2026-05-08 18:27 | 48.98078 | 2.34450 | 3221 ft | 230 kts | 84° |
| 2026-05-08 18:28 | 48.98210 | 2.36836 | 2917 ft | 223 kts | 84° |
| 2026-05-08 18:28 | 48.98338 | 2.39142 | 2623 ft | 213 kts | 84° |
| 2026-05-08 18:28 | 48.98458 | 2.41306 | 2347 ft | 198 kts | 84° |
| 2026-05-08 18:28 | 48.98568 | 2.43315 | 2127 ft | 182 kts | 84° |
| 2026-05-08 18:29 | 48.98671 | 2.45172 | 1867 ft | 168 kts | 84° |
| 2026-05-08 18:29 | 48.98761 | 2.46820 | 1642 ft | 145 kts | 84° |
| 2026-05-08 18:29 | 48.98840 | 2.48270 | 1459 ft | 132 kts | 84° |
| 2026-05-08 18:29 | 48.98914 | 2.49628 | 1286 ft | 127 kts | 84° |
| 2026-05-08 18:30 | 48.98988 | 2.50974 | 1112 ft | 127 kts | 84° |
| 2026-05-08 18:30 | 48.99061 | 2.52311 | 944 ft | 126 kts | 83° |
| 2026-05-08 18:30 | 48.99132 | 2.53634 | 757 ft | 125 kts | 84° |
| 2026-05-08 18:30 | 48.99200 | 2.54954 | 635 ft | 125 kts | 83° |
| 2026-05-08 18:31 | 48.99273 | 2.56265 | 452 ft | 124 kts | 83° |
| 2026-05-08 18:31 | 48.99343 | 2.57521 | 358 ft | 107 kts | 82° |
| 2026-05-08 18:31 | 48.99391 | 2.58400 | 353 ft | 41 kts | 82° |
| 2026-05-08 18:31 | 48.99456 | 2.58653 | 358 ft | 21 kts | 65° |
| 2026-05-08 18:32 | 48.99518 | 2.58856 | 360 ft | 7 kts | 63° |
| 2026-05-08 18:32 | 48.99553 | 2.58965 | 353 ft | 16 kts | 64° |
| 2026-05-08 18:32 | 48.99604 | 2.59171 | 357 ft | 24 kts | 79° |
| 2026-05-08 18:32 | 48.99618 | 2.59441 | 354 ft | 26 kts | 85° |
| 2026-05-08 18:33 | 48.99652 | 2.59656 | 360 ft | 14 kts | 51° |
| 2026-05-08 18:33 | 48.99744 | 2.59680 | 358 ft | 15 kts | 355° |
| 2026-05-08 18:33 | 48.99851 | 2.59668 | 353 ft | 16 kts | 355° |
| 2026-05-08 18:33 | 48.99933 | 2.59657 | 358 ft | 0 kts | 354° |
| 2026-05-08 18:34 | 48.99949 | 2.59654 | 354 ft | 8 kts | 350° |
| 2026-05-08 18:34 | 49.00002 | 2.59559 | 355 ft | 2 kts | 297° |
| 2026-05-08 18:34 | 49.00060 | 2.59536 | 354 ft | 13 kts | 36° |
| 2026-05-08 18:34 | 49.00080 | 2.59565 | 358 ft | 10 kts | 53° |
| 2026-05-08 18:35 | 49.00148 | 2.59636 | 358 ft | 0 kts | 7° |